createdAt,value
2022-11-20T00:01:21.223Z,29.77
2022-11-20T00:03:47.995Z,36.95
2022-11-20T00:06:17.668Z,28.05
2022-11-20T00:08:44.530Z,25.67
2022-11-20T00:11:22.838Z,26.40
2022-11-20T00:13:52.274Z,23.50
2022-11-20T00:16:21.288Z,21.50
2022-11-20T00:18:48.166Z,20.73
2022-11-20T00:21:24.554Z,26.05
2022-11-20T00:23:54.964Z,22.45
2022-11-20T00:26:23.682Z,23.50
2022-11-20T00:28:55.674Z,20.65
2022-11-20T00:31:22.827Z,23.10
2022-11-20T00:33:49.286Z,20.58
2022-11-20T00:36:19.008Z,22.73
2022-11-20T00:38:45.934Z,22.45
2022-11-20T00:41:15.130Z,20.00
2022-11-20T00:43:42.248Z,17.30
2022-11-20T00:46:11.759Z,23.20
2022-11-20T00:48:38.182Z,23.67
2022-11-20T00:51:05.189Z,23.80
2022-11-20T00:53:32.291Z,25.80
2022-11-20T00:56:11.014Z,20.48
2022-11-20T00:58:39.557Z,20.60
2022-11-20T01:01:08.904Z,22.45
2022-11-20T01:03:37.708Z,21.77
2022-11-20T01:06:07.031Z,22.25
2022-11-20T01:08:35.915Z,17.90
2022-11-20T01:11:07.992Z,19.20
2022-11-20T01:13:41.300Z,21.02
2022-11-20T01:16:09.839Z,22.10
2022-11-20T01:18:37.727Z,22.42
2022-11-20T01:21:12.753Z,20.90
2022-11-20T01:23:40.939Z,17.15
2022-11-20T01:26:11.942Z,23.92
2022-11-20T01:28:39.425Z,22.48
2022-11-20T01:31:24.279Z,21.00
2022-11-20T01:33:53.218Z,18.17
2022-11-20T01:36:22.116Z,18.73
2022-11-20T01:38:48.909Z,20.17
2022-11-20T01:41:36.537Z,19.33
2022-11-20T01:44:04.831Z,20.15
2022-11-20T01:46:37.753Z,15.98
2022-11-20T01:49:09.057Z,18.52
2022-11-20T01:52:02.474Z,21.15
2022-11-20T01:54:39.519Z,19.55
2022-11-20T01:57:10.466Z,20.23
2022-11-20T01:59:43.141Z,18.13
2022-11-20T02:02:10.088Z,23.25
2022-11-20T02:04:36.714Z,20.70
2022-11-20T02:07:05.908Z,19.08
2022-11-20T02:09:32.503Z,20.23
2022-11-20T02:11:59.755Z,19.35
2022-11-20T02:14:27.131Z,23.10
2022-11-20T02:16:55.768Z,18.80
2022-11-20T02:19:31.528Z,18.88
2022-11-20T02:22:03.349Z,20.02
2022-11-20T02:24:29.898Z,19.45
2022-11-20T02:27:12.390Z,19.77
2022-11-20T02:29:58.859Z,19.60
2022-11-20T02:32:26.828Z,19.65
2022-11-20T02:34:53.626Z,17.40
2022-11-20T02:37:21.157Z,17.55
2022-11-20T02:39:49.770Z,21.65
2022-11-20T02:42:16.531Z,18.02
2022-11-20T02:44:42.965Z,18.00
2022-11-20T02:47:09.419Z,17.85
2022-11-20T02:49:35.987Z,18.88
2022-11-20T02:52:02.438Z,17.67
2022-11-20T02:54:28.950Z,17.95
2022-11-20T02:56:55.406Z,18.73
2022-11-20T02:59:22.203Z,14.57
2022-11-20T03:01:49.060Z,14.10
2022-11-20T03:04:15.542Z,20.63
2022-11-20T03:06:41.969Z,15.35
2022-11-20T03:09:08.434Z,18.08
2022-11-20T03:11:34.869Z,16.75
2022-11-20T03:14:05.436Z,18.50
2022-11-20T03:16:32.670Z,17.92
2022-11-20T03:18:59.710Z,18.75
2022-11-20T03:21:26.198Z,15.40
2022-11-20T03:23:54.952Z,16.55
2022-11-20T03:26:23.743Z,20.92
2022-11-20T03:29:01.123Z,20.13
2022-11-20T03:31:30.402Z,18.08
2022-11-20T03:33:58.782Z,22.23
2022-11-20T03:36:26.232Z,23.73
2022-11-20T03:38:54.754Z,22.08
2022-11-20T03:41:23.577Z,20.00
2022-11-20T03:43:50.671Z,18.23
2022-11-20T03:46:17.410Z,19.52
2022-11-20T03:48:48.746Z,23.80
2022-11-20T03:51:20.797Z,16.98
2022-11-20T03:53:48.479Z,17.13
2022-11-20T03:56:17.489Z,14.90
2022-11-20T03:58:44.568Z,19.10
2022-11-20T04:01:12.499Z,19.05
2022-11-20T04:03:40.140Z,16.35
2022-11-20T04:06:12.838Z,19.63
2022-11-20T04:08:39.762Z,17.13
2022-11-20T04:11:13.203Z,16.42
2022-11-20T04:13:40.597Z,18.42
2022-11-20T04:16:08.426Z,18.30
2022-11-20T04:18:35.250Z,15.15
2022-11-20T04:21:02.131Z,18.25
2022-11-20T04:23:29.102Z,15.00
2022-11-20T04:25:56.011Z,17.58
2022-11-20T04:28:22.446Z,19.60
2022-11-20T04:30:48.889Z,17.48
2022-11-20T04:33:15.332Z,17.67
2022-11-20T04:35:41.826Z,19.10
2022-11-20T04:38:08.254Z,13.85
2022-11-20T04:40:34.710Z,20.38
2022-11-20T04:43:01.150Z,17.20
2022-11-20T04:45:27.593Z,17.75
2022-11-20T04:47:54.055Z,19.02
2022-11-20T04:50:20.502Z,20.35
2022-11-20T04:52:47.005Z,17.80
2022-11-20T04:55:13.551Z,18.90
2022-11-20T04:57:39.979Z,18.58
2022-11-20T05:00:07.131Z,16.60
2022-11-20T05:02:33.814Z,15.80
2022-11-20T05:05:00.263Z,17.05
2022-11-20T05:07:26.742Z,17.25
2022-11-20T05:09:53.316Z,18.58
2022-11-20T05:12:19.729Z,18.67
2022-11-20T05:14:46.161Z,19.40
2022-11-20T05:17:13.014Z,17.98
2022-11-20T05:19:39.497Z,17.20
2022-11-20T05:22:06.270Z,17.05
2022-11-20T05:24:32.716Z,19.67
2022-11-20T05:26:59.159Z,14.55
2022-11-20T05:29:25.590Z,18.83
2022-11-20T05:31:52.023Z,17.70
2022-11-20T05:34:18.472Z,22.42
2022-11-20T05:36:44.930Z,19.20
2022-11-20T05:39:11.414Z,19.20
2022-11-20T05:41:37.868Z,19.83
2022-11-20T05:44:04.586Z,19.17
2022-11-20T05:46:31.071Z,17.60
2022-11-20T05:48:58.709Z,14.88
2022-11-20T05:51:26.371Z,16.70
2022-11-20T05:53:52.825Z,19.60
2022-11-20T05:56:21.397Z,16.90
2022-11-20T05:58:48.685Z,18.52
2022-11-20T06:01:24.795Z,17.88
2022-11-20T06:03:51.951Z,21.63
2022-11-20T06:06:19.771Z,15.77
2022-11-20T06:08:46.805Z,17.77
2022-11-20T06:11:14.630Z,16.80
2022-11-20T06:13:42.951Z,17.88
2022-11-20T06:16:11.142Z,17.60
2022-11-20T06:18:38.081Z,19.05
2022-11-20T06:21:14.280Z,17.25
2022-11-20T06:23:41.736Z,14.98
2022-11-20T06:26:10.965Z,17.73
2022-11-20T06:28:37.530Z,17.00
2022-11-20T06:31:04.966Z,18.98
2022-11-20T06:33:31.671Z,16.33
2022-11-20T06:36:01.690Z,15.98
2022-11-20T06:38:30.668Z,15.77
2022-11-20T06:40:57.394Z,18.92
2022-11-20T06:43:24.757Z,16.55
2022-11-20T06:45:55.628Z,14.82
2022-11-20T06:48:22.987Z,14.02
2022-11-20T06:50:49.608Z,15.48
2022-11-20T06:53:16.257Z,17.95
2022-11-20T06:55:46.968Z,18.75
2022-11-20T06:58:15.049Z,16.92
2022-11-20T07:00:41.578Z,19.90
2022-11-20T07:03:10.137Z,19.38
2022-11-20T07:05:37.228Z,16.77
2022-11-20T07:08:04.242Z,13.90
2022-11-20T07:10:30.722Z,16.45
2022-11-20T07:12:57.189Z,17.27
2022-11-20T07:15:25.363Z,13.93
2022-11-20T07:17:53.283Z,16.15
2022-11-20T07:20:19.785Z,15.35
2022-11-20T07:22:46.210Z,14.95
2022-11-20T07:25:12.697Z,17.30
2022-11-20T07:27:39.133Z,19.58
2022-11-20T07:30:06.176Z,16.35
2022-11-20T07:32:32.611Z,16.63
2022-11-20T07:34:59.057Z,14.20
2022-11-20T07:37:25.532Z,18.13
2022-11-20T07:39:51.985Z,19.50
2022-11-20T07:42:18.425Z,19.65
2022-11-20T07:44:44.915Z,19.40
2022-11-20T07:47:11.329Z,23.02
2022-11-20T07:49:37.769Z,21.15
2022-11-20T07:52:05.273Z,21.25
2022-11-20T07:54:31.979Z,18.67
2022-11-20T07:56:58.410Z,20.20
2022-11-20T07:59:24.910Z,16.23
2022-11-20T08:01:51.451Z,18.92
2022-11-20T08:04:17.951Z,19.15
2022-11-20T08:06:44.397Z,22.52
2022-11-20T08:09:10.840Z,24.02
2022-11-20T08:11:55.854Z,19.55
2022-11-20T08:14:22.300Z,20.73
2022-11-20T08:16:50.221Z,25.92
2022-11-20T08:19:19.712Z,16.75
2022-11-20T08:21:46.629Z,21.92
2022-11-20T08:24:13.087Z,20.80
2022-11-20T08:26:40.887Z,12.98
2022-11-20T08:29:08.245Z,24.92
2022-11-20T08:31:34.867Z,22.10
2022-11-20T08:34:04.938Z,22.55
2022-11-20T08:36:35.639Z,26.65
2022-11-20T08:39:02.271Z,18.58
2022-11-20T08:41:31.642Z,22.50
2022-11-20T08:44:02.887Z,18.15
2022-11-20T08:46:34.827Z,24.00
2022-11-20T08:51:27.797Z,22.02
2022-11-20T08:53:54.227Z,22.30
2022-11-20T08:56:20.705Z,14.05
2022-11-20T08:59:17.960Z,17.10
2022-11-20T09:01:33.867Z,14.55
2022-11-20T09:04:00.843Z,23.02
2022-11-20T09:06:27.314Z,21.75
2022-11-20T09:08:54.783Z,20.85
2022-11-20T09:11:21.831Z,23.23
2022-11-20T09:13:48.379Z,18.33
2022-11-20T09:16:14.857Z,20.17
2022-11-20T09:18:41.331Z,25.05
2022-11-20T09:21:11.711Z,22.83
2022-11-20T09:23:39.671Z,22.35
2022-11-20T09:26:09.794Z,22.90
2022-11-20T09:28:36.516Z,19.95
2022-11-20T09:31:07.394Z,27.42
2022-11-20T09:33:33.996Z,23.40
2022-11-20T09:36:00.469Z,23.20
2022-11-20T09:38:27.000Z,23.88
2022-11-20T09:41:05.751Z,25.27
2022-11-20T09:43:51.513Z,21.27
2022-11-20T09:46:35.611Z,23.10
2022-11-20T09:49:10.582Z,26.70
2022-11-20T09:51:46.125Z,21.95
2022-11-20T09:54:27.598Z,24.80
2022-11-20T09:56:59.968Z,21.15
2022-11-20T09:59:33.920Z,17.80
2022-11-20T10:02:02.928Z,24.83
2022-11-20T10:04:36.676Z,19.83
2022-11-20T10:07:31.729Z,12.75
2022-11-20T10:09:59.390Z,22.77
2022-11-20T10:12:52.292Z,24.67
2022-11-20T10:16:04.219Z,23.80
2022-11-20T10:19:03.111Z,26.85
2022-11-20T10:21:51.062Z,25.23
2022-11-20T10:24:34.616Z,20.30
2022-11-20T10:27:20.864Z,23.35
2022-11-20T10:29:54.382Z,23.42
2022-11-20T10:32:24.380Z,19.40
2022-11-20T10:35:00.909Z,17.38
2022-11-20T10:37:29.914Z,19.60
2022-11-20T10:40:04.588Z,21.90
2022-11-20T10:42:52.087Z,24.60
2022-11-20T10:45:30.401Z,21.33
2022-11-20T10:48:08.937Z,17.58
2022-11-20T10:50:41.159Z,21.83
2022-11-20T10:53:45.715Z,16.25
2022-11-20T10:56:28.730Z,14.30
2022-11-20T10:59:12.881Z,20.52
2022-11-20T11:01:43.599Z,13.77
2022-11-20T11:04:29.358Z,17.35
2022-11-20T11:07:18.983Z,12.38
2022-11-20T11:09:50.418Z,16.77
2022-11-20T11:12:17.242Z,12.35
2022-11-20T11:14:56.057Z,11.43
2022-11-20T11:17:28.394Z,16.20
2022-11-20T11:20:05.477Z,12.35
2022-11-20T11:22:34.302Z,11.70
2022-11-20T11:25:01.631Z,13.88
2022-11-20T11:27:28.503Z,11.57
2022-11-20T11:30:15.001Z,13.73
2022-11-20T11:32:41.447Z,15.48
2022-11-20T11:35:20.927Z,15.15
2022-11-20T11:37:49.190Z,11.65
2022-11-20T11:40:25.672Z,15.18
2022-11-20T11:42:59.899Z,15.10
2022-11-20T11:45:27.052Z,17.75
2022-11-20T11:47:57.421Z,15.18
2022-11-20T11:50:28.673Z,9.18
2022-11-20T11:53:11.287Z,15.60
2022-11-20T11:55:57.800Z,16.58
2022-11-20T11:58:29.937Z,15.15
2022-11-20T12:01:39.389Z,13.60
2022-11-20T12:04:38.533Z,18.75
2022-11-20T12:07:44.888Z,15.27
2022-11-20T12:10:04.600Z,13.38
2022-11-20T12:12:39.822Z,14.07
2022-11-20T12:15:13.723Z,14.77
2022-11-20T12:17:40.211Z,13.68
2022-11-20T12:20:15.762Z,17.75
2022-11-20T12:22:52.619Z,13.65
2022-11-20T12:25:32.089Z,18.38
2022-11-20T12:28:09.583Z,15.10
2022-11-20T12:30:49.555Z,16.75
2022-11-20T12:33:37.220Z,14.95
2022-11-20T12:36:17.341Z,15.10
2022-11-20T12:39:11.865Z,16.05
2022-11-20T12:42:09.274Z,12.93
2022-11-20T12:45:11.161Z,13.05
2022-11-20T12:48:01.860Z,15.07
2022-11-20T12:53:42.512Z,12.32
2022-11-20T12:56:39.481Z,13.77
2022-11-20T13:02:00.754Z,9.25
2022-11-20T13:04:36.322Z,14.10
2022-11-20T13:07:04.885Z,12.55
2022-11-20T13:09:33.534Z,16.15
2022-11-20T13:12:11.886Z,18.35
2022-11-20T13:14:43.140Z,13.68
2022-11-20T13:17:25.369Z,14.40
2022-11-20T13:19:56.986Z,17.33
2022-11-20T13:22:43.594Z,13.70
2022-11-20T13:25:16.171Z,14.10
2022-11-20T13:27:50.035Z,14.10
2022-11-20T13:30:21.915Z,14.35
2022-11-20T13:33:02.373Z,13.13
2022-11-20T13:35:38.149Z,14.98
2022-11-20T13:38:13.790Z,14.73
2022-11-20T13:40:53.596Z,11.82
2022-11-20T13:43:33.643Z,13.63
2022-11-20T13:46:03.450Z,13.07
2022-11-20T13:48:34.013Z,12.93
2022-11-20T13:51:13.903Z,10.95
2022-11-20T13:53:57.754Z,7.65
2022-11-20T13:56:54.784Z,11.38
2022-11-20T14:02:13.872Z,13.18
2022-11-20T14:04:45.684Z,8.98
2022-11-20T14:09:38.967Z,12.63
2022-11-20T14:12:17.729Z,13.43
2022-11-20T14:14:55.425Z,13.23
2022-11-20T14:17:30.731Z,10.35
2022-11-20T14:20:04.202Z,11.50
2022-11-20T14:22:30.981Z,12.35
2022-11-20T14:25:06.483Z,10.75
2022-11-20T14:27:42.024Z,12.23
2022-11-20T14:30:17.487Z,12.30
2022-11-20T14:32:45.974Z,11.43
2022-11-20T14:35:24.903Z,12.25
2022-11-20T14:37:52.057Z,14.95
2022-11-20T14:40:31.209Z,11.10
2022-11-20T14:42:59.236Z,11.57
2022-11-20T14:45:27.205Z,10.82
2022-11-20T14:47:57.273Z,13.15
2022-11-20T14:50:26.185Z,14.00
2022-11-20T14:52:55.247Z,11.85
2022-11-20T14:55:36.944Z,13.10
2022-11-20T14:58:21.112Z,11.13
2022-11-20T15:01:05.549Z,11.00
2022-11-20T15:08:30.204Z,12.07
2022-11-20T15:10:57.050Z,13.82
2022-11-20T15:13:27.000Z,15.75
2022-11-20T15:15:56.082Z,13.68
2022-11-20T15:18:26.819Z,14.80
2022-11-20T15:20:57.091Z,12.95
2022-11-20T15:23:24.219Z,10.98
2022-11-20T15:25:51.069Z,7.97
2022-11-20T15:28:20.405Z,8.38
2022-11-20T15:30:48.930Z,12.80
2022-11-20T15:33:16.891Z,13.25
2022-11-20T15:35:44.009Z,15.88
2022-11-20T15:38:10.770Z,11.63
2022-11-20T15:40:37.540Z,14.43
2022-11-20T15:43:08.224Z,10.75
2022-11-20T15:45:43.677Z,8.95
2022-11-20T15:48:13.669Z,14.43
2022-11-20T15:50:53.529Z,11.90
2022-11-20T15:53:20.046Z,9.57
2022-11-20T15:55:46.566Z,12.38
2022-11-20T15:58:13.030Z,12.48
2022-11-20T16:00:39.698Z,13.57
2022-11-20T16:03:06.243Z,13.00
2022-11-20T16:05:32.836Z,15.38
2022-11-20T16:07:59.409Z,13.55
2022-11-20T16:10:25.909Z,7.35
2022-11-20T16:13:18.498Z,14.02
2022-11-20T16:15:53.687Z,6.90
2022-11-20T16:18:21.801Z,8.05
2022-11-20T16:20:50.206Z,13.02
2022-11-20T16:23:17.559Z,6.78
2022-11-20T16:25:44.475Z,7.60
2022-11-20T16:28:16.116Z,11.45
2022-11-20T16:30:45.769Z,10.23
2022-11-20T16:33:14.710Z,14.98
2022-11-20T16:35:41.706Z,7.28
2022-11-20T16:38:08.219Z,8.23
2022-11-20T16:40:34.690Z,7.15
2022-11-20T16:43:11.664Z,13.10
2022-11-20T16:45:45.215Z,14.38
2022-11-20T16:48:16.709Z,10.75
2022-11-20T16:50:49.009Z,10.73
2022-11-20T16:53:16.001Z,14.15
2022-11-20T16:55:42.457Z,15.05
2022-11-20T16:58:09.329Z,7.65
2022-11-20T17:00:41.307Z,14.50
2022-11-20T17:03:08.407Z,15.25
2022-11-20T17:05:35.551Z,16.02
2022-11-20T17:08:02.365Z,13.95
2022-11-20T17:10:28.917Z,8.88
2022-11-20T17:12:55.341Z,14.38
2022-11-20T17:15:21.810Z,14.30
2022-11-20T17:17:48.242Z,11.15
2022-11-20T17:20:14.740Z,9.52
2022-11-20T17:22:41.181Z,9.98
2022-11-20T17:25:08.033Z,16.52
2022-11-20T17:27:34.476Z,15.27
2022-11-20T17:30:00.923Z,14.20
2022-11-20T17:32:28.184Z,9.68
2022-11-20T17:34:54.658Z,15.35
2022-11-20T17:37:21.123Z,15.18
2022-11-20T17:39:49.079Z,12.50
2022-11-20T17:42:27.790Z,15.32
2022-11-20T17:44:54.278Z,17.23
2022-11-20T17:47:20.724Z,10.43
2022-11-20T17:49:47.175Z,17.83
2022-11-20T17:52:13.649Z,14.07
2022-11-20T17:54:40.118Z,12.25
2022-11-20T17:57:25.293Z,15.52
2022-11-20T17:59:51.736Z,16.55
2022-11-20T18:02:18.191Z,17.13
2022-11-20T18:04:44.893Z,16.17
2022-11-20T18:07:11.379Z,7.97
2022-11-20T18:09:37.864Z,9.38
2022-11-20T18:12:04.690Z,15.35
2022-11-20T18:14:35.991Z,16.17
2022-11-20T18:17:07.326Z,15.48
2022-11-20T18:19:42.353Z,17.38
2022-11-20T18:22:13.160Z,11.32
2022-11-20T18:24:39.900Z,11.55
2022-11-20T18:27:07.888Z,17.30
2022-11-20T18:29:34.363Z,17.98
2022-11-20T18:32:01.410Z,17.15
2022-11-20T18:34:28.162Z,12.10
2022-11-20T18:36:54.585Z,10.30
2022-11-20T18:39:21.742Z,18.60
2022-11-20T18:42:06.507Z,10.23
2022-11-20T18:44:51.647Z,14.88
2022-11-20T18:47:28.258Z,11.00
2022-11-20T18:49:57.188Z,17.95
2022-11-20T18:52:27.055Z,15.60
2022-11-20T18:54:54.260Z,11.77
2022-11-20T18:57:23.012Z,17.63
2022-11-20T18:59:49.617Z,10.63
2022-11-20T19:02:18.743Z,13.98
2022-11-20T19:04:45.379Z,18.10
2022-11-20T19:07:12.254Z,14.32
2022-11-20T19:09:43.217Z,13.40
2022-11-20T19:12:11.388Z,18.35
2022-11-20T19:14:37.982Z,10.57
2022-11-20T19:17:06.742Z,16.45
2022-11-20T19:19:34.177Z,9.70
2022-11-20T19:22:00.696Z,12.73
2022-11-20T19:24:29.799Z,13.32
2022-11-20T19:26:56.354Z,10.95
2022-11-20T19:29:24.657Z,13.15
2022-11-20T19:31:51.402Z,10.68
2022-11-20T19:34:17.837Z,19.38
2022-11-20T19:36:45.014Z,12.45
2022-11-20T19:39:12.169Z,20.67
2022-11-20T19:41:40.324Z,11.18
2022-11-20T19:44:12.466Z,13.68
2022-11-20T19:46:39.751Z,13.32
2022-11-20T19:49:09.973Z,12.88
2022-11-20T19:51:38.335Z,16.67
2022-11-20T19:54:05.490Z,13.65
2022-11-20T19:56:33.127Z,15.38
2022-11-20T19:59:00.245Z,22.58
2022-11-20T20:01:29.357Z,10.88
2022-11-20T20:04:01.220Z,13.73
2022-11-20T20:06:28.464Z,18.33
2022-11-20T20:09:09.665Z,21.50
2022-11-20T20:11:37.164Z,14.98
2022-11-20T20:14:14.893Z,13.60
2022-11-20T20:16:41.939Z,17.23
2022-11-20T20:19:12.033Z,14.02
2022-11-20T20:21:38.506Z,17.35
2022-11-20T20:24:05.378Z,15.68
2022-11-20T20:26:32.597Z,19.35
2022-11-20T20:29:00.986Z,16.10
2022-11-20T20:31:29.133Z,22.45
2022-11-20T20:33:56.387Z,18.50
2022-11-20T20:36:24.204Z,11.48
2022-11-20T20:38:54.892Z,21.15
2022-11-20T20:41:23.567Z,23.65
2022-11-20T20:44:09.263Z,23.85
2022-11-20T20:46:35.822Z,24.08
2022-11-20T20:49:02.276Z,18.30
2022-11-20T20:51:28.718Z,21.60
2022-11-20T20:53:55.688Z,18.55
2022-11-20T20:56:22.258Z,18.33
2022-11-20T20:58:48.718Z,24.02
2022-11-20T21:01:17.778Z,16.77
2022-11-20T21:03:44.647Z,18.40
2022-11-20T21:06:12.130Z,17.00
2022-11-20T21:08:41.073Z,21.50
2022-11-20T21:11:11.083Z,24.42
2022-11-20T21:13:38.866Z,18.98
2022-11-20T21:16:05.644Z,19.05
2022-11-20T21:18:33.480Z,28.23
2022-11-20T21:21:18.950Z,15.10
2022-11-20T21:23:47.149Z,17.52
2022-11-20T21:26:14.398Z,24.17
2022-11-20T21:28:40.870Z,22.95
2022-11-20T21:31:12.412Z,28.33
2022-11-20T21:33:40.972Z,20.13
2022-11-20T21:36:09.004Z,23.75
2022-11-20T21:38:36.004Z,26.98
2022-11-20T21:41:04.375Z,22.23
2022-11-20T21:43:31.241Z,29.02
2022-11-20T21:46:06.787Z,26.15
2022-11-20T21:48:35.018Z,27.35
2022-11-20T21:51:07.272Z,25.83
2022-11-20T21:53:34.402Z,25.73
2022-11-20T21:56:01.869Z,31.77
2022-11-20T21:58:28.302Z,19.17
2022-11-20T22:00:54.957Z,22.25
2022-11-20T22:03:21.920Z,24.48
2022-11-20T22:05:56.505Z,26.65
2022-11-20T22:08:26.786Z,24.77
2022-11-20T22:10:58.439Z,17.75
2022-11-20T22:13:44.515Z,25.55
2022-11-20T22:16:11.617Z,26.05
2022-11-20T22:18:49.220Z,25.08
2022-11-20T22:21:17.337Z,19.15
2022-11-20T22:23:43.769Z,19.23
2022-11-20T22:26:12.492Z,23.30
2022-11-20T22:28:39.997Z,26.88
2022-11-20T22:31:09.171Z,23.42
2022-11-20T22:33:37.478Z,22.08
2022-11-20T22:36:12.463Z,19.15
2022-11-20T22:38:39.814Z,31.02
2022-11-20T22:41:16.568Z,26.90
2022-11-20T22:43:44.212Z,20.85
2022-11-20T22:46:13.340Z,27.42
2022-11-20T22:48:42.674Z,27.30
2022-11-20T22:51:14.700Z,27.65
2022-11-20T22:53:42.805Z,15.45
2022-11-20T22:56:12.402Z,26.58
2022-11-20T22:58:41.157Z,20.88
2022-11-20T23:01:16.056Z,26.27
2022-11-20T23:03:44.966Z,27.90
2022-11-20T23:06:12.806Z,28.50
2022-11-20T23:08:41.456Z,24.95
2022-11-20T23:11:11.111Z,22.13
2022-11-20T23:13:38.353Z,27.90
2022-11-20T23:16:07.959Z,18.65
2022-11-20T23:18:35.033Z,17.92
2022-11-20T23:21:16.104Z,24.73
2022-11-20T23:23:44.031Z,24.88
2022-11-20T23:26:12.764Z,27.27
2022-11-20T23:28:40.674Z,24.25
2022-11-20T23:31:08.535Z,35.30
2022-11-20T23:33:36.855Z,28.88
2022-11-20T23:36:04.485Z,32.03
2022-11-20T23:38:31.033Z,27.50
2022-11-20T23:40:57.788Z,31.90
2022-11-20T23:43:24.242Z,23.40
2022-11-20T23:45:57.410Z,29.67
2022-11-20T23:48:26.335Z,24.70
2022-11-20T23:50:52.966Z,34.13
2022-11-20T23:53:20.502Z,32.35
2022-11-20T23:55:52.847Z,29.65
2022-11-20T23:58:21.240Z,26.77
